Impacts METAR Board INFO
IDs:

KFLL - Ft Lauderdale-Hollyw, FL, US

Updated at: 0023 UTC 12 Dec 2017
Potential Impact None Slight Moderate High
Time11/12Z 11/13Z 11/14Z 11/15Z 11/16Z 11/17Z 11/18Z 11/19Z 11/20Z 11/21Z 11/22Z 11/23Z 12/00Z
VIS10 10 10 10 10 10 10 10 10 10 10 10 10
CIG-- -- -- -- -- -- -- -- -- -- -- -- --
CoverFEWFEWFEWFEWSCTFEWFEWCLRFEWFEWFEWFEWFEW
FltCatVFRVFRVFRVFRVFRVFRVFRVFRVFRVFRVFRVFRVFR
WX--------------------------
WDir3303403403603303203000340310310310
WSpd7 7 6 8 8 5 4 0 0 5 5 5 6
WGst-- -- -- -- -- -- -- -- -- -- -- -- --
Raw hourly METARs
KFLL 111153Z 33007KT 10SM FEW025 09/04 A3026 RMK AO2 SLP247 T00940044 10111 20089 53009 $
KFLL 111253Z 34007KT 10SM FEW030 11/04 A3026 RMK AO2 SLP248 T01060039 $
KFLL 111353Z 34006KT 10SM FEW035 13/03 A3027 RMK AO2 SLP251 T01280028 $
KFLL 111453Z COR 36008KT 10SM FEW035 FEW250 14/02 A3028 RMK AO2 SLP252 T01440017 52005
KFLL 111553Z 33008KT 10SM FEW035 SCT250 16/02 A3025 RMK AO2 SLP243 T01560017
KFLL 111653Z 32005KT 10SM FEW035 FEW250 17/00 A3022 RMK AO2 SLP232 T01720000
KFLL 111753Z 03004KT 10SM FEW035 FEW250 18/M01 A3018 RMK AO2 SLP218 T01831006 10183 20094 58034
KFLL 111853Z 00000KT 10SM CLR 18/M03 A3016 RMK AO2 SLP212 T01831028
KFLL 111953Z 00000KT 10SM FEW250 19/M02 A3015 RMK AO2 SLP207 T01941017 $
KFLL 112053Z 34005KT 10SM FEW250 19/M02 A3014 RMK AO2 SLP207 T01941017 56012 $
KFLL 112153Z 31005KT 10SM FEW250 18/M04 A3014 RMK AO2 SLP206 T01831039 $
KFLL 112253Z 31005KT 10SM FEW250 16/M01 A3015 RMK AO2 SLP208 T01611006 $
KFLL 112353Z 31006KT 10SM FEW250 14/06 A3016 RMK AO2 SLP212 T01440061 10200 20144 53006 $